Time;durP1;ratioP1;P1;durP2;ratioP2;P2;SDS_P1;SDS_P2;PMS_P1;PMS_P2;Temp;Humidity;BMP_temperature;BMP_pressure;BME280_temperature;BME280_humidity;BME280_pressure;Samples;Min_cycle;Max_cycle;Signal;HPM_P1;HPM_P2
2022/07/02 00:02:00;;;;;;;7.15;6.37;;;;;;;17.10;73.98;100610.34;2110815;83;21004;-71
2022/07/02 00:05:07;;;;;;;7.40;6.40;;;;;;;17.09;74.35;100618.08;2076303;84;21035;-68
2022/07/02 00:08:09;;;;;;;8.18;6.22;;;;;;;17.10;74.00;100626.95;2103207;84;21097;-67
2022/07/02 00:11:15;;;;;;;7.75;6.95;;;;;;;17.09;74.08;100624.78;2106677;84;21053;-68
2022/07/02 00:14:17;;;;;;;9.20;7.28;;;;;;;17.07;74.10;100621.98;2101826;84;21040;-67
2022/07/02 00:17:18;;;;;;;8.75;7.92;;;;;;;17.03;74.22;100613.00;2105092;84;21315;-68
2022/07/02 00:20:20;;;;;;;8.70;7.75;;;;;;;17.01;74.32;100613.70;2106439;84;20989;-68
2022/07/02 00:23:22;;;;;;;8.35;7.53;;;;;;;17.01;74.08;100606.99;2102714;84;21057;-68
2022/07/02 00:26:37;;;;;;;9.23;7.90;;;;;;;17.01;74.05;100619.06;2109178;84;21391;-67
2022/07/02 00:29:53;;;;;;;8.80;7.08;;;;;;;16.99;73.98;100619.76;2103460;84;21101;-67
2022/07/02 00:32:54;;;;;;;8.25;7.05;;;;;;;16.96;74.03;100613.45;2102458;84;21615;-68
2022/07/02 00:35:57;;;;;;;7.60;6.60;;;;;;;16.93;73.99;100613.02;2109147;84;21053;-68
2022/07/02 00:39:00;;;;;;;7.75;6.95;;;;;;;16.93;74.14;100612.51;2080983;84;21081;-69
2022/07/02 00:42:05;;;;;;;6.97;6.25;;;;;;;16.93;74.03;100615.19;2107243;84;21555;-68
2022/07/02 00:45:06;;;;;;;8.80;6.33;;;;;;;16.93;74.20;100629.11;2102983;84;21542;-68
2022/07/02 00:48:08;;;;;;;7.08;5.83;;;;;;;16.94;74.31;100636.94;2108703;84;21520;-68
2022/07/02 00:51:10;;;;;;;6.50;4.15;;;;;;;16.95;74.47;100647.99;2105520;84;21674;-70
2022/07/02 00:54:12;;;;;;;4.55;4.15;;;;;;;16.95;74.48;100642.63;2113330;84;21126;-68
2022/07/02 00:57:15;;;;;;;3.90;3.60;;;;;;;16.89;74.60;100648.75;2103875;83;21053;-69
2022/07/02 01:00:19;;;;;;;4.30;3.72;;;;;;;16.87;74.73;100652.67;2089840;84;21056;-69
2022/07/02 01:03:22;;;;;;;5.30;4.33;;;;;;;16.87;74.72;100654.84;2110650;84;21544;-68
2022/07/02 01:06:25;;;;;;;4.15;3.80;;;;;;;16.85;74.64;100663.58;2113710;84;21118;-68
2022/07/02 01:12:52;;;;;;;5.00;4.47;;;;;;;16.73;74.83;100669.95;2107696;83;21136;-69
2022/07/02 01:15:53;;;;;;;4.75;4.22;;;;;;;16.70;75.12;100672.20;2087412;84;21061;-68
2022/07/02 01:18:55;;;;;;;4.90;4.47;;;;;;;16.67;74.97;100669.88;2110204;83;20993;-68
2022/07/02 01:22:17;;;;;;;5.22;4.50;;;;;;;16.69;75.08;100675.36;2105966;84;21030;-70
2022/07/02 01:25:18;;;;;;;5.30;4.62;;;;;;;16.68;75.07;100677.73;2105217;84;21113;-69
2022/07/02 01:28:21;;;;;;;4.85;4.45;;;;;;;16.71;75.22;100677.34;2111874;84;21057;-69
2022/07/02 01:31:23;;;;;;;7.35;4.30;;;;;;;16.69;75.15;100671.34;2110864;83;21078;-68
2022/07/02 01:34:25;;;;;;;7.12;4.75;;;;;;;16.71;75.13;100677.86;2114002;84;21023;-68
2022/07/02 01:37:26;;;;;;;5.05;4.60;;;;;;;16.71;75.11;100685.38;2108509;84;21029;-68
2022/07/02 01:40:28;;;;;;;4.67;4.28;;;;;;;16.75;75.10;100699.22;2114211;83;21525;-68
2022/07/02 01:43:34;;;;;;;5.60;4.08;;;;;;;16.76;75.14;100711.13;2109170;84;21562;-68
2022/07/02 01:46:36;;;;;;;4.55;4.15;;;;;;;16.76;75.15;100713.81;2102076;84;21005;-68
2022/07/02 01:49:38;;;;;;;5.17;4.12;;;;;;;16.78;75.20;100710.92;2108707;83;21478;-68
2022/07/02 01:52:39;;;;;;;5.53;5.03;;;;;;;16.78;75.11;100714.94;2107440;83;21603;-69
2022/07/02 01:55:41;;;;;;;4.78;4.08;;;;;;;16.76;75.08;100719.16;2113414;83;21551;-69
2022/07/02 01:58:42;;;;;;;7.50;4.22;;;;;;;16.69;75.00;100724.11;2111053;84;21551;-73
2022/07/02 02:01:44;;;;;;;9.25;4.85;;;;;;;16.67;74.99;100737.71;2106506;84;21042;-68
2022/07/02 02:04:46;;;;;;;6.12;4.25;;;;;;;16.64;75.13;100747.95;2112793;84;21081;-68
2022/07/02 02:07:47;;;;;;;4.53;4.12;;;;;;;16.63;75.03;100751.67;2107171;84;20952;-69
2022/07/02 02:10:49;;;;;;;5.70;3.80;;;;;;;16.61;75.17;100752.36;2109251;84;21005;-68
2022/07/02 02:13:51;;;;;;;5.85;4.20;;;;;;;16.57;74.91;100758.11;2106394;84;21030;-68
2022/07/02 02:16:52;;;;;;;4.78;4.00;;;;;;;16.55;74.96;100758.80;2106825;84;21050;-68
2022/07/02 02:19:53;;;;;;;4.53;3.60;;;;;;;16.54;74.89;100765.70;2107788;84;21002;-69
2022/07/02 02:22:55;;;;;;;5.33;4.12;;;;;;;16.51;74.88;100769.59;2104545;84;21035;-67
2022/07/02 02:25:56;;;;;;;4.90;4.10;;;;;;;16.51;74.87;100776.28;2108094;84;20983;-70
2022/07/02 02:28:57;;;;;;;4.65;4.28;;;;;;;16.53;74.86;100778.78;2102678;84;21027;-67
2022/07/02 02:32:01;;;;;;;7.83;3.92;;;;;;;16.57;74.91;100772.02;2105889;83;20990;-69
2022/07/02 02:35:03;;;;;;;5.78;4.53;;;;;;;16.54;74.69;100773.22;2105237;84;21058;-67
2022/07/02 02:38:06;;;;;;;5.65;4.12;;;;;;;16.48;74.66;100775.84;2103592;84;21078;-68
2022/07/02 02:41:10;;;;;;;4.10;3.72;;;;;;;16.45;74.59;100777.05;2105699;83;21089;-68
2022/07/02 02:44:13;;;;;;;5.20;4.22;;;;;;;16.46;74.60;100777.87;2108216;84;21072;-68
2022/07/02 02:47:15;;;;;;;5.10;4.00;;;;;;;16.45;74.53;100772.20;2105258;83;21043;-69
2022/07/02 02:50:17;;;;;;;7.25;4.58;;;;;;;16.40;74.36;100770.08;2114739;83;21037;-68
2022/07/02 02:53:18;;;;;;;6.40;4.58;;;;;;;16.35;74.33;100771.15;2105830;84;21078;-69
2022/07/02 02:56:20;;;;;;;4.55;4.05;;;;;;;16.33;74.30;100771.84;2108483;84;21050;-67
2022/07/02 02:59:21;;;;;;;6.85;4.75;;;;;;;16.32;74.29;100767.00;2103618;84;21098;-68
2022/07/02 03:02:22;;;;;;;6.47;4.60;;;;;;;16.32;74.45;100765.66;2109592;84;20956;-68
2022/07/02 03:05:24;;;;;;;6.55;4.87;;;;;;;16.31;74.44;100768.55;2107141;83;21082;-73
2022/07/02 03:08:26;;;;;;;5.97;4.22;;;;;;;16.23;74.41;100765.46;2104920;83;21011;-67
2022/07/02 03:11:28;;;;;;;7.65;5.37;;;;;;;16.20;74.54;100767.69;2109376;84;21054;-67
2022/07/02 03:14:33;;;;;;;5.95;5.35;;;;;;;16.17;74.41;100770.75;2106172;84;21642;-67
2022/07/02 03:17:35;;;;;;;6.35;5.10;;;;;;;16.13;74.56;100771.12;2104131;84;21001;-68
2022/07/02 03:20:36;;;;;;;6.83;5.50;;;;;;;16.13;74.68;100760.89;2109737;84;21012;-68
2022/07/02 03:23:39;;;;;;;6.60;5.35;;;;;;;16.11;74.67;100766.45;2110925;83;20970;-67
2022/07/02 03:26:41;;;;;;;5.37;4.83;;;;;;;16.12;74.76;100759.25;2105399;83;21612;-67
2022/07/02 03:29:44;;;;;;;7.22;5.03;;;;;;;16.10;74.67;100771.47;2103642;84;21015;-67
2022/07/02 03:32:47;;;;;;;5.92;5.40;;;;;;;16.10;74.78;100774.14;2103253;84;21054;-68
2022/07/02 03:35:48;;;;;;;5.75;5.08;;;;;;;16.12;74.82;100776.65;2099034;84;21109;-70
2022/07/02 03:38:50;;;;;;;7.65;5.55;;;;;;;16.08;74.74;100778.88;2099394;83;21106;-69
2022/07/02 03:41:51;;;;;;;6.37;5.47;;;;;;;16.07;74.90;100789.76;2110148;84;21080;-68
2022/07/02 03:44:54;;;;;;;6.22;5.60;;;;;;;16.06;74.96;100792.13;2107274;83;21465;-67
2022/07/02 03:47:56;;;;;;;7.33;6.25;;;;;;;16.05;75.13;100793.13;2105856;84;21084;-74
2022/07/02 03:50:58;;;;;;;7.10;6.25;;;;;;;16.03;75.14;100801.35;2108230;84;21643;-68
2022/07/02 03:53:59;;;;;;;9.50;6.87;;;;;;;15.98;75.20;100795.72;2102038;83;21589;-69
2022/07/02 03:57:03;;;;;;;7.65;6.65;;;;;;;15.97;75.42;100788.72;2104638;84;21022;-68
2022/07/02 04:00:07;;;;;;;8.48;5.90;;;;;;;15.95;75.58;100801.96;2105435;84;21590;-67
2022/07/02 04:03:16;;;;;;;7.45;6.60;;;;;;;15.95;75.53;100813.49;2103743;83;21097;-67
2022/07/02 04:06:17;;;;;;;9.13;6.62;;;;;;;15.95;75.69;100814.00;2101692;84;21125;-68
2022/07/02 04:09:21;;;;;;;9.53;6.22;;;;;;;15.91;75.75;100814.89;2100504;84;21016;-68
2022/07/02 04:12:25;;;;;;;8.03;6.25;;;;;;;15.90;75.89;100826.59;2104538;84;23065;-69
2022/07/02 04:15:25;;;;;;;6.50;5.87;;;;;;;15.91;75.87;100826.94;2108263;84;21116;-68
2022/07/02 04:18:29;;;;;;;6.10;5.42;;;;;;;15.94;76.00;100834.59;2102124;83;21358;-69
2022/07/02 04:21:30;;;;;;;6.03;5.25;;;;;;;15.95;76.05;100842.93;2110560;84;21061;-68
2022/07/02 04:24:32;;;;;;;7.97;5.33;;;;;;;15.95;76.15;100826.05;2105351;83;21564;-68
2022/07/02 04:27:33;;;;;;;8.78;5.50;;;;;;;15.95;76.20;100828.21;2106104;84;20995;-70
2022/07/02 04:30:35;;;;;;;6.42;5.80;;;;;;;15.98;76.31;100839.88;2107209;84;20982;-69
2022/07/02 04:33:36;;;;;;;6.28;5.60;;;;;;;16.00;76.37;100846.41;2104663;84;21514;-69
2022/07/02 04:36:39;;;;;;;9.05;4.87;;;;;;;16.01;76.35;100848.05;2114220;84;21496;-73
2022/07/02 04:39:42;;;;;;;4.58;4.08;;;;;;;16.02;76.64;100853.23;2103881;83;21037;-70
2022/07/02 04:42:43;;;;;;;5.30;4.30;;;;;;;15.99;76.47;100860.27;2105248;84;21050;-68
2022/07/02 04:45:45;;;;;;;4.58;3.87;;;;;;;15.99;76.39;100864.28;2108931;83;21386;-69
2022/07/02 04:48:46;;;;;;;4.60;4.20;;;;;;;15.99;76.46;100872.31;2105577;84;21055;-68
2022/07/02 04:51:47;;;;;;;4.50;4.17;;;;;;;15.99;76.56;100875.50;2101846;84;21616;-72
2022/07/02 04:54:49;;;;;;;7.25;4.22;;;;;;;16.01;76.64;100882.85;2111625;83;21578;-69
2022/07/02 04:57:51;;;;;;;6.75;4.17;;;;;;;16.02;76.56;100885.84;2111492;84;21020;-68
2022/07/02 05:00:52;;;;;;;5.60;4.28;;;;;;;16.02;76.73;100886.70;2107619;83;21496;-68
2022/07/02 05:03:56;;;;;;;4.58;3.62;;;;;;;16.04;76.68;100884.64;2105245;83;21124;-68
2022/07/02 05:06:57;;;;;;;6.72;4.55;;;;;;;16.05;76.73;100885.47;2104266;84;21433;-69
2022/07/02 05:09:59;;;;;;;4.70;3.90;;;;;;;16.06;76.80;100897.34;2104416;84;21038;-69
2022/07/02 05:13:00;;;;;;;6.70;4.37;;;;;;;16.13;76.91;100894.75;2106039;84;21037;-68
2022/07/02 05:16:02;;;;;;;5.30;4.80;;;;;;;16.18;77.07;100896.89;2106528;83;21567;-68
2022/07/02 05:19:03;;;;;;;5.45;4.53;;;;;;;16.20;77.29;100901.56;2110269;83;20993;-70
2022/07/02 05:22:05;;;;;;;7.37;4.75;;;;;;;16.25;76.92;100912.55;2110295;83;21026;-68
2022/07/02 05:25:08;;;;;;;5.58;4.80;;;;;;;16.26;76.80;100913.69;2108634;83;21085;-68
2022/07/02 05:28:09;;;;;;;4.67;4.17;;;;;;;16.30;76.91;100923.03;2105358;84;21049;-68
2022/07/02 05:31:11;;;;;;;5.50;5.00;;;;;;;16.38;76.82;100924.77;2109684;84;21054;-69
2022/07/02 05:34:12;;;;;;;8.35;5.08;;;;;;;16.36;76.68;100929.50;2110865;84;21037;-68
2022/07/02 05:37:13;;;;;;;6.67;5.30;;;;;;;16.36;76.60;100940.21;2105654;84;22205;-68
2022/07/02 05:40:15;;;;;;;5.50;4.97;;;;;;;16.44;76.64;100945.96;2109744;83;21102;-67
2022/07/02 05:43:16;;;;;;;5.10;4.55;;;;;;;16.48;76.57;100944.59;2112922;83;21033;-70
2022/07/02 05:46:18;;;;;;;4.40;4.00;;;;;;;16.48;76.41;100941.91;2106633;84;21131;-71
2022/07/02 05:49:21;;;;;;;4.90;4.45;;;;;;;16.52;76.35;100944.02;2100573;84;21566;-68
2022/07/02 05:52:23;;;;;;;5.92;3.80;;;;;;;16.62;76.47;100942.92;2109279;83;21089;-68
2022/07/02 05:55:25;;;;;;;4.58;3.90;;;;;;;16.68;76.37;100946.19;2108220;84;21049;-68
2022/07/02 05:58:26;;;;;;;3.75;3.45;;;;;;;16.75;76.03;100951.97;2107648;83;20976;-70
2022/07/02 06:01:27;;;;;;;4.17;3.30;;;;;;;16.82;75.92;100939.19;2108966;84;21549;-68
2022/07/02 06:04:31;;;;;;;6.97;3.83;;;;;;;16.90;75.51;100945.78;2101360;84;21013;-70
2022/07/02 06:07:43;;;;;;;4.12;3.70;;;;;;;16.97;75.35;100954.71;2103522;84;21049;-70
2022/07/02 06:10:44;;;;;;;3.52;3.22;;;;;;;16.96;75.21;100945.84;2107837;84;21021;-68
2022/07/02 06:13:46;;;;;;;4.20;3.12;;;;;;;17.08;75.09;100952.06;2112258;84;21109;-68
2022/07/02 06:16:47;;;;;;;4.35;2.95;;;;;;;17.16;74.83;100959.47;2113646;83;21053;-67
2022/07/02 06:19:48;;;;;;;4.78;2.67;;;;;;;17.26;74.68;100949.80;2111185;84;21086;-68
2022/07/02 06:22:50;;;;;;;2.83;2.05;;;;;;;17.34;74.51;100959.03;2116213;84;20967;-69
2022/07/02 06:25:51;;;;;;;4.00;2.22;;;;;;;17.39;73.87;100956.61;2114182;84;21606;-68
2022/07/02 06:28:53;;;;;;;3.05;1.95;;;;;;;17.48;73.80;100964.02;2106951;84;21103;-68
2022/07/02 06:31:56;;;;;;;5.83;2.00;;;;;;;17.53;73.14;100967.48;2106430;84;21116;-68
2022/07/02 06:34:58;;;;;;;4.80;1.70;;;;;;;17.57;73.18;100967.41;2103673;83;21057;-68
2022/07/02 06:37:59;;;;;;;4.92;1.70;;;;;;;17.62;72.48;100967.67;2108219;84;21561;-67
2022/07/02 06:41:01;;;;;;;3.90;1.82;;;;;;;17.68;72.38;100974.94;2105856;84;20991;-68
2022/07/02 06:44:05;;;;;;;3.25;1.60;;;;;;;17.70;71.79;100979.61;2109753;83;21105;-75
2022/07/02 06:47:06;;;;;;;3.20;1.50;;;;;;;17.81;71.80;100977.78;2079785;83;21022;-68
2022/07/02 06:50:10;;;;;;;4.05;1.37;;;;;;;17.87;71.63;100982.37;2096288;84;21029;-68
2022/07/02 06:53:15;;;;;;;2.65;1.60;;;;;;;18.07;71.41;100984.39;2109190;84;21370;-68
2022/07/02 06:56:17;;;;;;;1.90;1.45;;;;;;;18.10;70.70;100982.66;2101480;84;21084;-69
2022/07/02 06:59:18;;;;;;;1.70;1.37;;;;;;;18.07;70.30;100983.88;2113338;84;20993;-68
2022/07/02 07:02:22;;;;;;;2.50;1.60;;;;;;;18.09;70.01;100995.78;2109787;83;21049;-68
2022/07/02 07:05:24;;;;;;;5.42;1.72;;;;;;;18.09;69.62;100993.09;2105520;84;21076;-69
2022/07/02 07:08:25;;;;;;;3.83;1.45;;;;;;;18.12;69.81;100994.05;2063909;85;21084;-68
2022/07/02 07:11:27;;;;;;;1.65;1.50;;;;;;;18.23;69.94;100990.82;2047612;85;21014;-69
2022/07/02 07:14:28;;;;;;;4.05;1.60;;;;;;;18.33;69.42;100992.66;2071330;85;21053;-69
2022/07/02 07:17:30;;;;;;;3.98;1.70;;;;;;;18.42;69.26;100997.88;2066755;85;21021;-69
2022/07/02 07:20:32;;;;;;;2.47;1.60;;;;;;;18.52;69.20;100999.16;2068769;85;21025;-74
2022/07/02 07:23:33;;;;;;;2.25;1.40;;;;;;;18.65;68.50;100998.95;2114331;83;21031;-69
2022/07/02 07:26:37;;;;;;;4.75;1.40;;;;;;;18.71;68.19;101003.00;2099453;84;21011;-68
2022/07/02 07:29:38;;;;;;;2.90;1.37;;;;;;;18.76;67.25;100997.90;2100299;84;21017;-69
2022/07/02 07:32:39;;;;;;;3.02;1.20;;;;;;;18.93;66.09;101015.05;2103372;84;21036;-68
2022/07/02 07:35:44;;;;;;;3.58;1.17;;;;;;;19.00;65.56;101014.54;2095538;84;21043;-68
2022/07/02 07:38:47;;;;;;;3.55;1.35;;;;;;;19.15;65.92;101015.77;2092907;84;21474;-68
2022/07/02 07:41:49;;;;;;;2.65;1.37;;;;;;;19.83;65.67;101018.43;2094546;84;21014;-72
2022/07/02 07:44:50;;;;;;;1.85;1.20;;;;;;;20.62;64.50;101020.27;2096862;83;20972;-68
2022/07/02 07:47:53;;;;;;;2.27;1.57;;;;;;;21.44;64.22;101020.59;2096253;84;21137;-70
2022/07/02 07:50:55;;;;;;;3.33;1.57;;;;;;;21.97;63.06;101022.93;2095118;84;21554;-69
2022/07/02 07:53:57;;;;;;;1.80;1.40;;;;;;;22.64;62.70;101028.58;2097841;84;20999;-69
2022/07/02 07:56:58;;;;;;;1.67;1.40;;;;;;;23.24;61.14;101026.55;2097406;84;21047;-69
2022/07/02 08:00:00;;;;;;;3.85;1.70;;;;;;;23.38;58.98;101023.95;2095602;84;21098;-68
2022/07/02 08:03:02;;;;;;;6.92;1.95;;;;;;;23.35;59.16;101023.59;2091678;84;21045;-69
2022/07/02 08:06:04;;;;;;;2.55;1.50;;;;;;;23.81;58.49;101022.92;2092142;84;21002;-69
2022/07/02 08:09:06;;;;;;;4.47;1.50;;;;;;;23.87;57.69;101027.94;2094192;84;21398;-68
2022/07/02 08:12:08;;;;;;;2.87;1.40;;;;;;;23.49;57.56;101027.23;2103822;83;21022;-71
2022/07/02 08:15:10;;;;;;;4.92;1.80;;;;;;;23.17;57.28;101033.41;2091159;84;21584;-68
2022/07/02 08:18:11;;;;;;;3.33;1.40;;;;;;;22.65;57.27;101041.05;2066366;84;21004;-69
2022/07/02 08:21:15;;;;;;;2.83;1.42;;;;;;;22.67;57.59;101039.48;2090215;84;20970;-69
2022/07/02 08:24:16;;;;;;;2.70;1.35;;;;;;;23.24;56.17;101040.08;2093808;83;21668;-68
2022/07/02 08:27:18;;;;;;;1.98;1.12;;;;;;;23.83;56.28;101047.09;2094126;84;21048;-68
2022/07/02 08:30:19;;;;;;;3.50;1.05;;;;;;;24.05;55.22;101046.02;2097850;84;21030;-68
2022/07/02 08:33:20;;;;;;;2.52;1.17;;;;;;;24.28;53.41;101046.57;2100565;84;21002;-68
2022/07/02 08:36:22;;;;;;;2.35;0.95;;;;;;;24.51;53.84;101036.28;2068010;85;21057;-70
2022/07/02 08:39:24;;;;;;;5.08;1.00;;;;;;;24.91;51.86;101038.22;2070627;85;21065;-69
2022/07/02 08:42:28;;;;;;;6.62;1.07;;;;;;;24.72;51.68;101040.25;2067723;85;21092;-71
2022/07/02 08:45:32;;;;;;;3.08;0.80;;;;;;;24.64;51.42;101041.97;2074538;84;21040;-69
2022/07/02 08:48:34;;;;;;;0.98;0.93;;;;;;;24.11;48.24;101041.84;2084681;84;21489;-69
2022/07/02 08:51:35;;;;;;;1.17;0.72;;;;;;;23.41;49.82;101039.73;2102347;83;21549;-68
2022/07/02 08:54:37;;;;;;;4.05;1.22;;;;;;;23.63;51.16;101039.23;2101967;83;21001;-68
2022/07/02 08:57:39;;;;;;;2.98;0.75;;;;;;;24.13;50.41;101039.72;2104887;84;21040;-69
2022/07/02 09:00:42;;;;;;;1.02;0.90;;;;;;;24.46;47.64;101036.16;2103105;84;21027;-68
2022/07/02 09:03:44;;;;;;;1.10;0.72;;;;;;;24.69;49.21;101040.19;2103719;84;22330;-69
2022/07/02 09:06:49;;;;;;;3.80;1.20;;;;;;;24.93;48.34;101041.53;2109891;84;21486;-70
2022/07/02 09:09:52;;;;;;;3.37;1.20;;;;;;;25.23;48.20;101040.83;2110793;84;20998;-69
2022/07/02 09:12:55;;;;;;;3.60;0.90;;;;;;;24.98;47.46;101048.42;2104733;84;21064;-69
2022/07/02 09:15:57;;;;;;;3.33;1.07;;;;;;;24.57;47.59;101049.70;2104818;83;21009;-69
2022/07/02 09:18:58;;;;;;;2.17;0.93;;;;;;;24.35;47.51;101046.73;2107482;84;21050;-69
2022/07/02 09:22:00;;;;;;;3.33;1.07;;;;;;;24.07;48.37;101050.13;2107841;84;21710;-69
2022/07/02 09:25:20;;;;;;;0.88;0.75;;;;;;;24.54;48.88;101054.25;2105862;84;21046;-70
2022/07/02 09:28:21;;;;;;;4.37;0.80;;;;;;;24.96;47.30;101043.22;2104599;84;21073;-69
2022/07/02 09:31:23;;;;;;;3.12;0.90;;;;;;;24.95;46.88;101048.38;2113219;83;21006;-69
2022/07/02 09:34:27;;;;;;;2.42;1.25;;;;;;;25.11;47.02;101041.88;2078947;84;21106;-69
2022/07/02 09:37:29;;;;;;;3.33;1.05;;;;;;;25.09;46.39;101042.14;2100483;84;21061;-69
2022/07/02 09:40:30;;;;;;;1.10;0.78;;;;;;;24.87;46.66;101047.92;2107942;84;21084;-69
2022/07/02 09:43:35;;;;;;;3.33;1.27;;;;;;;25.08;46.89;101047.26;2106505;83;21065;-70
2022/07/02 09:46:36;;;;;;;1.90;1.00;;;;;;;25.48;46.77;101047.28;2107035;84;20982;-70
2022/07/02 09:49:49;;;;;;;2.55;1.15;;;;;;;25.52;45.75;101039.45;2109301;84;21528;-69
2022/07/02 09:52:55;;;;;;;2.17;1.15;;;;;;;25.09;45.53;101046.72;2100217;84;21522;-74
2022/07/02 09:55:56;;;;;;;1.47;0.82;;;;;;;25.49;46.14;101039.95;2108527;83;21049;-70
2022/07/02 09:58:58;;;;;;;1.17;0.80;;;;;;;25.59;45.74;101039.30;2112578;83;21509;-69
2022/07/02 10:01:59;;;;;;;1.70;0.90;;;;;;;25.06;44.97;101046.70;2112050;83;21092;-69
2022/07/02 10:05:05;;;;;;;1.90;1.00;;;;;;;25.12;46.01;101044.91;2107924;84;20982;-69
2022/07/02 10:08:10;;;;;;;3.00;1.30;;;;;;;25.39;45.60;101041.10;2107055;84;21018;-69
2022/07/02 10:11:14;;;;;;;2.00;0.90;;;;;;;25.61;45.49;101046.68;2103634;84;21084;-69
2022/07/02 10:14:20;;;;;;;1.92;1.00;;;;;;;25.81;44.57;101043.49;2105207;83;21045;-69
2022/07/02 10:17:23;;;;;;;4.40;1.02;;;;;;;25.70;44.26;101041.95;2105087;83;21027;-69
2022/07/02 10:20:25;;;;;;;2.17;1.17;;;;;;;25.25;44.43;101042.73;2107270;84;21006;-70
2022/07/02 10:23:27;;;;;;;1.92;0.98;;;;;;;24.92;44.47;101048.00;2107642;83;21039;-70
2022/07/02 10:26:30;;;;;;;1.02;0.93;;;;;;;25.19;45.27;101046.97;2106562;84;21065;-69
2022/07/02 10:29:31;;;;;;;2.47;0.80;;;;;;;25.52;44.52;101045.43;2108525;84;21013;-70
2022/07/02 10:32:57;;;;;;;1.77;0.85;;;;;;;25.28;43.80;101042.80;2103047;84;21057;-68
2022/07/02 10:36:03;;;;;;;2.10;1.10;;;;;;;24.89;44.71;101047.98;2106259;84;21477;-69
2022/07/02 10:39:06;;;;;;;2.15;1.10;;;;;;;25.05;43.89;101039.06;2104674;84;21058;-69
2022/07/02 10:42:08;;;;;;;2.77;1.27;;;;;;;25.35;43.65;101039.95;2107396;84;20987;-71
2022/07/02 10:45:16;;;;;;;1.67;1.00;;;;;;;25.43;42.52;101032.23;2103608;84;21002;-69
2022/07/02 10:48:18;;;;;;;1.65;0.90;;;;;;;25.69;43.21;101023.19;2093887;84;21080;-69
2022/07/02 10:51:28;;;;;;;4.60;1.15;;;;;;;25.88;42.98;101025.99;2079162;84;20997;-70
2022/07/02 10:54:32;;;;;;;1.05;0.88;;;;;;;26.33;43.62;101026.97;2085334;84;21070;-70
2022/07/02 10:57:33;;;;;;;2.83;1.32;;;;;;;26.45;40.97;101030.40;2074465;84;21030;-68
2022/07/02 11:00:40;;;;;;;4.53;1.30;;;;;;;26.53;41.74;101025.11;2090428;84;21138;-69
2022/07/02 11:04:02;;;;;;;3.15;0.95;;;;;;;26.56;41.96;101024.59;2092892;84;21069;-70
2022/07/02 11:07:11;;;;;;;2.05;0.98;;;;;;;26.24;40.52;101026.54;2075734;84;21015;-70
2022/07/02 11:10:13;;;;;;;3.22;1.20;;;;;;;26.00;42.05;101029.17;2078707;84;21062;-71
2022/07/02 11:13:18;;;;;;;2.02;1.22;;;;;;;25.79;41.98;101033.39;2088343;84;21034;-69
2022/07/02 11:16:37;;;;;;;1.75;1.10;;;;;;;25.72;42.42;101027.59;2062548;84;21149;-75
2022/07/02 11:19:40;;;;;;;2.67;1.22;;;;;;;26.12;42.74;101023.09;2055651;84;21056;-69
2022/07/02 11:22:40;;;;;;;1.87;1.70;;;;;;;26.26;42.76;101022.22;2079505;84;21032;-69
2022/07/02 11:25:42;;;;;;;2.65;1.15;;;;;;;26.07;42.03;101016.21;2075808;84;21026;-73
2022/07/02 11:28:44;;;;;;;2.80;1.27;;;;;;;25.64;41.63;101024.45;2083081;84;21111;-70
2022/07/02 11:31:51;;;;;;;2.12;0.95;;;;;;;25.35;42.29;101019.58;2086285;84;21006;-71
2022/07/02 11:34:59;;;;;;;2.40;0.85;;;;;;;25.61;42.61;101014.06;2054316;84;21099;-69
2022/07/02 11:38:00;;;;;;;2.25;1.32;;;;;;;26.07;43.15;101010.27;2080450;84;21010;-69
2022/07/02 11:41:02;;;;;;;2.20;1.27;;;;;;;26.39;41.45;101006.37;2080122;84;21592;-74
2022/07/02 11:44:26;;;;;;;4.67;1.45;;;;;;;26.48;41.21;101002.69;2087105;84;21032;-74
2022/07/02 11:47:29;;;;;;;1.42;1.10;;;;;;;26.57;41.57;101003.10;2086499;84;21560;-74
2022/07/02 11:50:33;;;;;;;4.95;0.95;;;;;;;26.82;41.29;100996.63;2093087;84;21073;-73
2022/07/02 11:53:39;;;;;;;1.70;1.10;;;;;;;26.27;40.50;100998.02;2091053;84;21053;-73
2022/07/02 11:56:43;;;;;;;4.05;1.05;;;;;;;25.85;40.95;100999.30;2095951;84;22781;-74
2022/07/02 11:59:51;;;;;;;2.45;1.40;;;;;;;25.55;41.89;101002.29;2091407;84;21034;-74
2022/07/02 12:02:54;;;;;;;3.02;1.05;;;;;;;25.70;42.10;100994.92;2094944;84;21037;-73
2022/07/02 12:05:57;;;;;;;1.12;1.00;;;;;;;25.82;41.80;100997.56;2094017;84;21159;-73
2022/07/02 12:09:07;;;;;;;5.42;1.20;;;;;;;25.89;41.59;100996.37;2085272;84;21012;-74
2022/07/02 12:12:10;;;;;;;;;;;;;;;25.63;41.29;101003.25;2096580;84;21014;-73
2022/07/02 12:15:13;;;;;;;2.52;1.17;;;;;;;25.10;40.90;101013.09;2091412;84;20191;-74
2022/07/02 12:18:19;;;;;;;2.77;1.65;;;;;;;24.46;41.25;101012.56;2089292;84;20947;-72
2022/07/02 12:21:27;;;;;;;2.83;1.25;;;;;;;24.32;42.27;101013.30;2090138;84;21105;-71
2022/07/02 12:24:33;;;;;;;2.42;1.40;;;;;;;24.88;43.74;101004.23;2095453;84;21006;-73
2022/07/02 12:27:36;;;;;;;3.42;1.40;;;;;;;25.35;43.00;101000.03;2092666;84;22557;-73
2022/07/02 12:30:40;;;;;;;1.85;1.30;;;;;;;25.32;42.77;101003.23;2095135;84;21607;-73
2022/07/02 12:33:41;;;;;;;3.65;1.70;;;;;;;25.27;43.06;101000.42;2092247;84;21030;-73
2022/07/02 12:36:57;;;;;;;2.50;1.12;;;;;;;25.24;43.35;101007.70;2090340;84;21037;-73
2022/07/02 12:40:09;;;;;;;1.47;1.10;;;;;;;25.42;42.25;101005.30;2093720;84;21532;-73
2022/07/02 12:43:16;;;;;;;1.57;0.95;;;;;;;25.59;41.85;101001.25;2094873;84;20990;-74
2022/07/02 12:46:19;;;;;;;1.67;0.93;;;;;;;25.48;41.57;100998.38;2087096;84;20979;-74
2022/07/02 12:49:25;;;;;;;2.35;1.15;;;;;;;24.94;41.29;100999.20;2056649;84;21145;-72
2022/07/02 12:52:31;;;;;;;1.92;1.17;;;;;;;24.95;42.13;100997.33;2026800;84;21053;-72
2022/07/02 13:00:02;;;;;;;1.70;1.00;;;;;;;25.25;42.42;100990.32;2068243;84;21026;-71
2022/07/02 13:03:19;;;;;;;3.25;1.32;;;;;;;25.33;42.35;100996.72;2036326;84;21078;-71
2022/07/02 13:06:33;;;;;;;2.58;1.25;;;;;;;25.25;42.50;100993.86;2049935;84;21074;-73
2022/07/02 13:22:28;;;;;;;;;;;;;;;;;;;;;
2022/07/02 13:29:55;;;;;;;1.72;1.05;;;;;;;25.37;41.55;100978.04;1985518;84;21599;-70
2022/07/02 13:42:58;;;;;;;1.55;1.05;;;;;;;25.33;40.21;100979.61;2150505;81;20196;-71
2022/07/02 13:46:07;;;;;;;2.45;1.00;;;;;;;24.93;41.25;100973.13;2156999;82;21484;-71
2022/07/02 13:49:11;;;;;;;6.08;1.22;;;;;;;24.53;41.28;100979.37;2155249;81;20933;-71
2022/07/02 13:52:14;;;;;;;7.33;1.85;;;;;;;24.32;41.42;100976.69;2115512;81;22192;-71
2022/07/02 13:55:17;;;;;;;3.55;1.20;;;;;;;24.08;41.81;100977.24;2128360;81;21064;-72
2022/07/02 13:58:31;;;;;;;1.47;1.25;;;;;;;24.08;42.45;100981.31;2155172;81;20994;-71
2022/07/02 14:01:34;;;;;;;3.67;1.67;;;;;;;23.99;42.56;100981.38;2136172;82;21544;-71
2022/07/02 14:04:36;;;;;;;3.90;1.15;;;;;;;23.92;42.80;100986.89;2161493;82;20949;-72
2022/07/02 14:07:39;;;;;;;4.67;1.60;;;;;;;24.16;43.35;100980.14;2157015;82;21526;-71
2022/07/02 14:10:41;;;;;;;2.72;1.45;;;;;;;24.23;42.65;100980.02;2159904;81;20953;-72
2022/07/02 14:13:43;;;;;;;2.58;1.12;;;;;;;24.25;42.02;100976.55;2161700;81;20998;-72
2022/07/02 14:16:47;;;;;;;2.83;1.30;;;;;;;24.43;42.29;100975.57;2160118;81;21561;-72
2022/07/02 14:19:48;;;;;;;1.67;1.05;;;;;;;24.63;42.42;100967.08;2159108;81;21079;-72
2022/07/02 14:28:18;;;;;;;2.90;1.20;;;;;;;24.82;42.50;100956.34;2168838;82;21134;-71
2022/07/02 14:32:49;;;;;;;3.33;1.40;;;;;;;24.57;41.55;100956.11;2112419;84;21120;-71
2022/07/02 15:08:44;;;;;;;4.45;1.30;;;;;;;24.18;41.93;100944.64;2042426;85;21059;-74
2022/07/02 15:11:49;;;;;;;2.08;1.10;;;;;;;24.15;41.64;100934.56;2073936;85;21037;-77
2022/07/02 15:19:48;;;;;;;4.70;1.30;;;;;;;23.95;41.45;100931.39;2077007;85;21105;-71
2022/07/02 15:36:29;;;;;;;2.85;1.25;;;;;;;24.18;42.44;100927.02;2044284;86;21609;-72
2022/07/02 15:39:35;;;;;;;2.05;1.20;;;;;;;24.21;40.06;100924.66;2022281;88;21867;-72
2022/07/02 16:05:15;;;;;;;1.20;1.07;;;;;;;24.27;42.25;100906.61;2063101;85;21817;-72
2022/07/02 16:09:03;;;;;;;3.00;1.27;;;;;;;24.41;42.12;100905.28;2030298;86;21439;-72
2022/07/02 16:16:26;;;;;;;3.12;1.45;;;;;;;24.22;40.49;100895.14;2068143;86;21145;-72